createdAt,value
2023-04-18T00:02:19.654Z,100.00
2023-04-18T00:05:22.685Z,100.00
2023-04-18T00:08:25.411Z,100.00
2023-04-18T00:11:28.456Z,100.00
2023-04-18T00:14:30.973Z,100.00
2023-04-18T00:17:33.691Z,100.00
2023-04-18T00:20:38.929Z,100.00
2023-04-18T00:23:41.753Z,100.00
2023-04-18T00:26:44.301Z,100.00
2023-04-18T00:29:47.515Z,100.00
2023-04-18T00:32:51.715Z,100.00
2023-04-18T00:35:54.905Z,100.00
2023-04-18T00:38:57.501Z,100.00
2023-04-18T00:42:01.291Z,100.00
2023-04-18T00:45:04.092Z,100.00
2023-04-18T00:48:07.790Z,100.00
2023-04-18T00:51:11.598Z,100.00
2023-04-18T00:54:15.399Z,100.00
2023-04-18T00:57:18.334Z,100.00
2023-04-18T01:00:22.031Z,100.00
2023-04-18T01:03:26.185Z,100.00
2023-04-18T01:06:29.498Z,100.00
2023-04-18T01:09:32.097Z,100.00
2023-04-18T01:12:34.953Z,100.00
2023-04-18T01:15:37.564Z,100.00
2023-04-18T01:18:40.465Z,100.00
2023-04-18T01:21:43.998Z,100.00
2023-04-18T01:24:48.111Z,100.00
2023-04-18T01:27:54.357Z,100.00
2023-04-18T01:30:57.238Z,100.00
2023-04-18T01:33:59.877Z,100.00
2023-04-18T01:37:02.904Z,100.00
2023-04-18T01:40:05.949Z,100.00
2023-04-18T01:43:08.924Z,100.00
2023-04-18T01:46:13.248Z,100.00
2023-04-18T01:49:16.482Z,100.00
2023-04-18T01:52:19.172Z,100.00
2023-04-18T01:55:22.259Z,100.00
2023-04-18T01:58:25.389Z,100.00
2023-04-18T02:01:28.247Z,100.00
2023-04-18T02:04:31.101Z,100.00
2023-04-18T02:07:33.637Z,100.00
2023-04-18T02:10:36.544Z,100.00
2023-04-18T02:13:39.817Z,100.00
2023-04-18T02:16:42.656Z,100.00
2023-04-18T02:19:45.659Z,100.00
2023-04-18T02:22:48.552Z,100.00
2023-04-18T02:25:51.067Z,100.00
2023-04-18T02:28:53.953Z,100.00
2023-04-18T02:31:58.470Z,100.00
2023-04-18T02:35:01.532Z,100.00
2023-04-18T02:38:04.276Z,100.00
2023-04-18T02:41:07.100Z,100.00
2023-04-18T02:44:09.714Z,100.00
2023-04-18T02:47:13.288Z,100.00
2023-04-18T02:50:16.616Z,100.00
2023-04-18T02:53:19.484Z,100.00
2023-04-18T02:56:23.002Z,100.00
2023-04-18T02:59:41.672Z,100.00
2023-04-18T03:02:45.213Z,100.00
2023-04-18T03:05:48.892Z,100.00
2023-04-18T03:08:51.840Z,100.00
2023-04-18T03:11:55.558Z,100.00
2023-04-18T03:14:58.884Z,100.00
2023-04-18T03:18:02.935Z,100.00
2023-04-18T03:21:07.220Z,100.00
2023-04-18T03:24:12.332Z,100.00
2023-04-18T03:27:15.993Z,100.00
2023-04-18T03:30:19.081Z,100.00
2023-04-18T03:33:24.110Z,100.00
2023-04-18T03:36:28.804Z,100.00
2023-04-18T03:39:31.899Z,100.00
2023-04-18T03:42:35.379Z,100.00
2023-04-18T03:45:38.212Z,100.00
2023-04-18T03:48:40.986Z,100.00
2023-04-18T03:51:49.670Z,100.00
2023-04-18T03:54:53.530Z,100.00
2023-04-18T03:57:58.475Z,100.00
2023-04-18T04:01:01.634Z,100.00
2023-04-18T04:04:05.504Z,100.00
2023-04-18T04:07:08.075Z,100.00
2023-04-18T04:10:11.952Z,100.00
2023-04-18T04:13:14.498Z,100.00
2023-04-18T04:16:17.771Z,100.00
2023-04-18T04:19:21.083Z,100.00
2023-04-18T04:22:24.877Z,100.00
2023-04-18T04:25:28.844Z,100.00
2023-04-18T04:28:32.020Z,100.00
2023-04-18T04:31:35.737Z,100.00
2023-04-18T04:34:41.373Z,100.00
2023-04-18T04:37:45.219Z,100.00
2023-04-18T04:40:49.795Z,100.00
2023-04-18T04:43:53.877Z,100.00
2023-04-18T04:46:57.553Z,100.00
2023-04-18T04:50:00.830Z,100.00
2023-04-18T04:53:06.812Z,100.00
2023-04-18T04:56:09.504Z,100.00
2023-04-18T04:59:12.383Z,100.00
2023-04-18T05:02:15.268Z,100.00
2023-04-18T05:05:18.127Z,100.00
2023-04-18T05:08:21.092Z,100.00
2023-04-18T05:11:24.191Z,100.00
2023-04-18T05:14:27.790Z,100.00
2023-04-18T05:17:30.949Z,100.00
2023-04-18T05:20:33.634Z,100.00
2023-04-18T05:23:37.282Z,100.00
2023-04-18T05:26:40.175Z,100.00
2023-04-18T05:29:42.938Z,100.00
2023-04-18T05:32:46.571Z,100.00
2023-04-18T05:35:49.569Z,100.00
2023-04-18T05:38:52.232Z,100.00
2023-04-18T05:41:55.211Z,100.00
2023-04-18T05:44:57.727Z,100.00
2023-04-18T05:48:00.741Z,100.00
2023-04-18T05:51:03.540Z,100.00
2023-04-18T05:54:06.396Z,100.00
2023-04-18T05:57:08.941Z,100.00
2023-04-18T06:00:13.051Z,100.00
2023-04-18T06:03:16.293Z,100.00
2023-04-18T06:06:19.226Z,100.00
2023-04-18T06:09:22.709Z,100.00
2023-04-18T06:12:25.505Z,100.00
2023-04-18T06:15:28.778Z,100.00
2023-04-18T06:18:31.706Z,100.00
2023-04-18T06:21:34.640Z,100.00
2023-04-18T06:24:37.598Z,100.00
2023-04-18T06:27:40.580Z,100.00
2023-04-18T06:30:43.278Z,100.00
2023-04-18T06:33:46.266Z,100.00
2023-04-18T06:36:49.419Z,100.00
2023-04-18T06:39:52.464Z,100.00
2023-04-18T06:42:55.559Z,100.00
2023-04-18T06:45:59.681Z,100.00
2023-04-18T06:49:06.538Z,100.00
2023-04-18T06:52:09.418Z,100.00
2023-04-18T06:55:13.097Z,100.00
2023-04-18T06:58:16.936Z,100.00
2023-04-18T07:01:19.720Z,100.00
2023-04-18T07:04:22.970Z,100.00
2023-04-18T07:07:26.587Z,100.00
2023-04-18T07:10:29.834Z,100.00
2023-04-18T07:13:32.761Z,100.00
2023-04-18T07:16:35.756Z,100.00
2023-04-18T07:19:38.556Z,100.00
2023-04-18T07:22:41.625Z,100.00
2023-04-18T07:25:44.248Z,100.00
2023-04-18T07:28:47.091Z,100.00
2023-04-18T07:31:49.963Z,100.00
2023-04-18T07:34:53.421Z,98.15
2023-04-18T07:37:56.135Z,96.55
2023-04-18T07:41:00.326Z,94.67
2023-04-18T07:44:02.975Z,95.55
2023-04-18T07:47:10.003Z,96.72
2023-04-18T07:50:12.761Z,97.20
2023-04-18T07:53:15.708Z,97.07
2023-04-18T07:56:19.037Z,98.25
2023-04-18T07:59:22.173Z,99.10
2023-04-18T08:02:25.551Z,99.21
2023-04-18T08:05:28.892Z,99.81
2023-04-18T08:08:31.765Z,99.52
2023-04-18T08:11:35.172Z,99.17
2023-04-18T08:14:37.895Z,99.56
2023-04-18T08:17:42.786Z,98.89
2023-04-18T08:20:45.690Z,99.16
2023-04-18T08:23:49.420Z,98.92
2023-04-18T08:26:51.989Z,97.69
2023-04-18T08:29:55.404Z,95.59
2023-04-18T08:32:59.351Z,94.03
2023-04-18T08:36:02.479Z,92.58
2023-04-18T08:39:06.614Z,92.81
2023-04-18T08:42:10.532Z,93.15
2023-04-18T08:45:16.760Z,94.27
2023-04-18T08:48:19.758Z,90.68
2023-04-18T08:51:22.652Z,92.01
2023-04-18T08:54:27.410Z,89.26
2023-04-18T08:57:31.829Z,90.63
2023-04-18T09:00:35.270Z,90.45
2023-04-18T09:03:40.388Z,89.31
2023-04-18T09:06:52.930Z,88.19
2023-04-18T09:09:59.701Z,86.97
2023-04-18T09:13:03.601Z,87.62
2023-04-18T09:16:06.723Z,85.90
2023-04-18T09:19:18.572Z,83.36
2023-04-18T09:22:21.956Z,83.86
2023-04-18T09:25:35.801Z,84.88
2023-04-18T09:28:40.775Z,83.51
2023-04-18T09:32:01.182Z,83.33
2023-04-18T09:35:05.508Z,82.43
2023-04-18T09:38:08.728Z,81.66
2023-04-18T09:41:12.384Z,82.26
2023-04-18T09:44:17.364Z,82.44
2023-04-18T09:47:20.798Z,80.42
2023-04-18T09:50:23.803Z,80.09
2023-04-18T09:53:26.962Z,81.29
2023-04-18T09:56:32.848Z,81.68
2023-04-18T10:00:08.726Z,81.08
2023-04-18T10:03:12.401Z,82.04
2023-04-18T10:06:16.731Z,83.42
2023-04-18T10:09:20.704Z,80.67
2023-04-18T10:12:24.357Z,80.10
2023-04-18T10:15:28.766Z,80.27
2023-04-18T10:18:31.367Z,79.47
2023-04-18T10:21:34.439Z,78.56
2023-04-18T10:24:46.844Z,77.80
2023-04-18T10:27:49.684Z,78.45
2023-04-18T10:30:56.171Z,77.19
2023-04-18T10:37:06.715Z,73.39
2023-04-18T10:40:11.015Z,74.63
2023-04-18T10:43:13.802Z,74.36
2023-04-18T10:46:30.433Z,70.18
2023-04-18T10:49:36.764Z,68.78
2023-04-18T10:52:39.708Z,69.13
2023-04-18T10:55:44.821Z,68.91
2023-04-18T10:58:52.354Z,70.13
2023-04-18T11:02:00.540Z,71.88
2023-04-18T11:05:04.849Z,70.14
2023-04-18T11:08:24.385Z,71.13
2023-04-18T11:11:28.072Z,71.05
2023-04-18T11:14:41.165Z,71.68
2023-04-18T11:17:44.491Z,73.95
2023-04-18T11:20:49.815Z,75.36
2023-04-18T11:23:53.012Z,76.00
2023-04-18T11:26:56.219Z,77.46
2023-04-18T11:29:59.312Z,80.06
2023-04-18T11:33:07.624Z,81.66
2023-04-18T11:36:10.932Z,81.41
2023-04-18T11:39:14.360Z,81.74
2023-04-18T11:42:17.410Z,80.78
2023-04-18T11:45:20.205Z,81.03
2023-04-18T11:48:23.463Z,82.15
2023-04-18T11:51:38.709Z,81.12
2023-04-18T11:54:43.270Z,79.94
2023-04-18T11:57:58.730Z,77.19
2023-04-18T12:01:21.920Z,78.76
2023-04-18T12:04:25.025Z,80.76
2023-04-18T12:07:38.057Z,83.10
2023-04-18T12:10:48.569Z,84.24
2023-04-18T12:13:56.288Z,86.91
2023-04-18T12:16:59.078Z,89.46
2023-04-18T12:20:03.714Z,90.12
2023-04-18T12:23:06.704Z,92.09
2023-04-18T12:26:14.454Z,93.35
2023-04-18T12:29:17.535Z,92.78
2023-04-18T12:32:22.002Z,94.07
2023-04-18T12:35:25.681Z,95.41
2023-04-18T12:38:28.363Z,94.21
2023-04-18T12:41:31.775Z,95.46
2023-04-18T12:44:34.873Z,96.16
2023-04-18T12:47:43.124Z,98.44
2023-04-18T12:50:45.953Z,97.97
2023-04-18T12:53:49.030Z,98.51
2023-04-18T12:56:51.534Z,98.98
2023-04-18T12:59:54.632Z,98.92
2023-04-18T13:02:57.638Z,97.85
2023-04-18T13:06:00.741Z,98.91
2023-04-18T13:09:03.299Z,100.00
2023-04-18T13:12:06.839Z,100.00
2023-04-18T13:15:10.451Z,100.00
2023-04-18T13:18:13.315Z,98.29
2023-04-18T13:21:15.954Z,96.31
2023-04-18T13:24:18.847Z,95.57
2023-04-18T13:27:21.301Z,96.07
2023-04-18T13:30:24.189Z,96.14
2023-04-18T13:33:26.655Z,93.97
2023-04-18T13:36:29.485Z,94.20
2023-04-18T13:39:33.351Z,91.29
2023-04-18T13:42:38.683Z,90.26
2023-04-18T13:45:41.310Z,89.51
2023-04-18T13:48:44.409Z,88.23
2023-04-18T13:51:46.856Z,87.70
2023-04-18T13:54:50.672Z,86.70
2023-04-18T13:57:53.194Z,85.74
2023-04-18T14:00:56.159Z,87.08
2023-04-18T14:03:59.169Z,84.90
2023-04-18T14:07:02.906Z,84.52
2023-04-18T14:10:06.403Z,83.89
2023-04-18T14:13:08.940Z,82.67
2023-04-18T14:16:11.911Z,82.35
2023-04-18T14:19:14.580Z,81.02
2023-04-18T14:22:17.369Z,80.59
2023-04-18T14:25:19.806Z,82.34
2023-04-18T14:28:24.955Z,82.22
2023-04-18T14:31:28.319Z,80.76
2023-04-18T14:34:33.970Z,81.85
2023-04-18T14:37:37.341Z,80.80
2023-04-18T14:40:40.141Z,82.01
2023-04-18T14:43:42.932Z,82.08
2023-04-18T14:46:45.947Z,81.74
2023-04-18T14:49:48.448Z,80.82
2023-04-18T14:52:51.455Z,80.62
2023-04-18T14:55:54.038Z,81.38
2023-04-18T14:58:56.971Z,83.01
2023-04-18T15:01:59.488Z,82.32
2023-04-18T15:05:03.431Z,82.68
2023-04-18T15:08:06.929Z,81.50
2023-04-18T15:11:10.457Z,82.79
2023-04-18T15:14:13.281Z,83.91
2023-04-18T15:17:16.349Z,84.26
2023-04-18T15:20:19.044Z,83.02
2023-04-18T15:23:22.303Z,83.75
2023-04-18T15:26:24.808Z,84.72
2023-04-18T15:29:27.668Z,82.57
2023-04-18T15:32:30.236Z,83.59
2023-04-18T15:35:33.167Z,82.92
2023-04-18T15:38:36.102Z,83.89
2023-04-18T15:41:39.313Z,82.93
2023-04-18T15:44:41.901Z,83.30
2023-04-18T15:47:44.774Z,84.36
2023-04-18T15:50:51.456Z,84.95
2023-04-18T15:53:54.525Z,86.04
2023-04-18T15:56:58.222Z,86.50
2023-04-18T16:00:01.012Z,87.33
2023-04-18T16:03:04.859Z,87.63
2023-04-18T16:06:10.109Z,87.94
2023-04-18T16:09:12.659Z,88.37
2023-04-18T16:12:15.813Z,87.76
2023-04-18T16:15:18.308Z,88.58
2023-04-18T16:18:21.127Z,87.23
2023-04-18T16:21:23.601Z,87.53
2023-04-18T16:24:26.400Z,87.82
2023-04-18T16:27:29.032Z,87.69
2023-04-18T16:30:31.832Z,88.25
2023-04-18T16:33:34.407Z,89.17
2023-04-18T16:36:37.334Z,91.79
2023-04-18T16:39:39.988Z,93.55
2023-04-18T16:42:42.763Z,95.45
2023-04-18T16:45:45.232Z,96.65
2023-04-18T16:48:49.047Z,96.96
2023-04-18T16:51:52.965Z,96.74
2023-04-18T16:54:55.847Z,97.31
2023-04-18T16:57:58.487Z,97.46
2023-04-18T17:01:02.108Z,97.49
2023-04-18T17:04:05.159Z,97.24
2023-04-18T17:07:08.133Z,98.19
2023-04-18T17:10:11.189Z,98.81
2023-04-18T17:13:14.030Z,99.21
2023-04-18T17:16:17.382Z,99.10
2023-04-18T17:19:21.377Z,98.97
2023-04-18T17:22:23.832Z,99.38
2023-04-18T17:25:26.593Z,100.00
2023-04-18T17:28:29.331Z,100.00
2023-04-18T17:31:32.612Z,100.00
2023-04-18T17:34:36.081Z,100.00
2023-04-18T17:37:39.160Z,100.00
2023-04-18T17:40:42.092Z,100.00
2023-04-18T17:43:46.366Z,100.00
2023-04-18T17:46:50.486Z,100.00
2023-04-18T17:49:53.590Z,100.00
2023-04-18T17:52:56.472Z,100.00
2023-04-18T17:55:59.494Z,100.00
2023-04-18T17:59:02.868Z,100.00
2023-04-18T18:02:05.918Z,100.00
2023-04-18T18:05:14.757Z,100.00
2023-04-18T18:08:17.520Z,100.00
2023-04-18T18:11:21.413Z,100.00
2023-04-18T18:14:24.596Z,100.00
2023-04-18T18:17:28.967Z,100.00
2023-04-18T18:20:32.007Z,100.00
2023-04-18T18:23:35.030Z,100.00
2023-04-18T18:26:37.550Z,100.00
2023-04-18T18:29:40.892Z,100.00
2023-04-18T18:32:43.713Z,100.00
2023-04-18T18:35:46.724Z,100.00
2023-04-18T18:38:49.527Z,100.00
2023-04-18T18:41:53.194Z,100.00
2023-04-18T18:44:56.012Z,100.00
2023-04-18T18:47:59.086Z,100.00
2023-04-18T18:51:01.955Z,100.00
2023-04-18T18:54:05.119Z,100.00
2023-04-18T18:57:08.701Z,100.00
2023-04-18T19:00:12.449Z,100.00
2023-04-18T19:03:18.965Z,100.00
2023-04-18T19:06:22.408Z,100.00
2023-04-18T19:09:25.210Z,100.00
2023-04-18T19:12:29.141Z,100.00
2023-04-18T19:15:32.027Z,100.00
2023-04-18T19:18:36.018Z,100.00
2023-04-18T19:21:39.793Z,100.00
2023-04-18T19:24:42.882Z,100.00
2023-04-18T19:27:46.008Z,100.00
2023-04-18T19:30:49.773Z,100.00
2023-04-18T19:33:52.638Z,100.00
2023-04-18T19:36:55.827Z,100.00
2023-04-18T19:39:58.550Z,100.00
2023-04-18T19:43:01.677Z,100.00
2023-04-18T19:46:05.624Z,100.00
2023-04-18T19:49:10.246Z,100.00
2023-04-18T19:52:13.152Z,100.00
2023-04-18T19:55:16.328Z,100.00
2023-04-18T19:58:46.064Z,100.00
2023-04-18T20:01:49.161Z,100.00
2023-04-18T20:04:52.338Z,100.00
2023-04-18T20:07:55.492Z,100.00
2023-04-18T20:10:58.592Z,100.00
2023-04-18T20:14:01.570Z,100.00
2023-04-18T20:17:05.700Z,100.00
2023-04-18T20:20:09.341Z,100.00
2023-04-18T20:23:14.350Z,100.00
2023-04-18T20:26:17.076Z,100.00
2023-04-18T20:29:19.863Z,100.00
2023-04-18T20:32:22.682Z,100.00
2023-04-18T20:35:27.914Z,100.00
2023-04-18T20:38:30.750Z,100.00
2023-04-18T20:41:36.825Z,100.00
2023-04-18T20:44:40.275Z,100.00
2023-04-18T20:47:43.747Z,100.00
2023-04-18T20:50:51.203Z,100.00
2023-04-18T20:53:54.468Z,100.00
2023-04-18T20:56:56.880Z,100.00
2023-04-18T20:59:59.848Z,100.00
2023-04-18T21:03:02.646Z,100.00
2023-04-18T21:06:05.652Z,100.00
2023-04-18T21:09:08.193Z,99.03
2023-04-18T21:12:17.454Z,98.54
2023-04-18T21:15:19.885Z,99.26
2023-04-18T21:18:23.272Z,100.00
2023-04-18T21:21:25.739Z,100.00
2023-04-18T21:24:28.503Z,100.00
2023-04-18T21:27:30.961Z,100.00
2023-04-18T21:30:34.124Z,100.00
2023-04-18T21:33:37.016Z,100.00
2023-04-18T21:36:40.178Z,100.00
2023-04-18T21:39:42.725Z,100.00
2023-04-18T21:42:46.189Z,100.00
2023-04-18T21:45:49.653Z,98.82
2023-04-18T21:48:52.514Z,97.97
2023-04-18T21:51:55.047Z,97.32
2023-04-18T21:54:59.263Z,96.06
2023-04-18T21:58:01.881Z,96.32
2023-04-18T22:01:04.726Z,96.42
2023-04-18T22:04:08.034Z,96.28
2023-04-18T22:07:12.005Z,95.47
2023-04-18T22:10:14.781Z,95.27
2023-04-18T22:13:18.996Z,95.14
2023-04-18T22:16:24.720Z,94.59
2023-04-18T22:19:29.464Z,95.55
2023-04-18T22:22:32.420Z,95.89
2023-04-18T22:25:35.014Z,95.89
2023-04-18T22:28:37.721Z,95.78
2023-04-18T22:31:40.225Z,95.07
2023-04-18T22:34:43.082Z,95.43
2023-04-18T22:37:45.671Z,95.43
2023-04-18T22:40:48.748Z,96.40
2023-04-18T22:43:51.345Z,97.65
2023-04-18T22:46:57.036Z,99.00
2023-04-18T22:49:59.537Z,99.05
2023-04-18T22:53:02.293Z,98.75
2023-04-18T22:56:05.278Z,98.41
2023-04-18T22:59:08.012Z,97.02
2023-04-18T23:02:11.013Z,94.96
2023-04-18T23:05:16.104Z,95.11
2023-04-18T23:08:22.574Z,95.06
2023-04-18T23:11:26.292Z,95.07
2023-04-18T23:14:29.459Z,95.18
2023-04-18T23:17:32.244Z,95.04
2023-04-18T23:20:34.942Z,93.77
2023-04-18T23:23:37.956Z,92.57
2023-04-18T23:26:41.043Z,92.23
2023-04-18T23:29:47.746Z,91.72
2023-04-18T23:32:50.567Z,93.56
2023-04-18T23:35:53.317Z,94.89
2023-04-18T23:38:56.293Z,97.43
2023-04-18T23:41:59.106Z,97.88
2023-04-18T23:45:01.781Z,97.39
2023-04-18T23:48:05.063Z,96.01
2023-04-18T23:51:07.536Z,95.06
2023-04-18T23:54:10.877Z,93.85
2023-04-18T23:57:13.457Z,93.36
